sensor_id;sensor_type;location;lat;lon;timestamp;P1;durP1;ratioP1;P2;durP2;ratioP2
47804;SDS011;33568;45.286;9.900;2022-08-19T00:01:26;9.18;;;5.65;;
47804;SDS011;33568;45.286;9.900;2022-08-19T00:03:55;6.40;;;4.93;;
47804;SDS011;33568;45.286;9.900;2022-08-19T00:06:28;6.00;;;4.40;;
47804;SDS011;33568;45.286;9.900;2022-08-19T00:08:55;7.43;;;4.18;;
47804;SDS011;33568;45.286;9.900;2022-08-19T00:11:23;9.20;;;4.25;;
47804;SDS011;33568;45.286;9.900;2022-08-19T00:13:53;6.35;;;3.78;;
47804;SDS011;33568;45.286;9.900;2022-08-19T00:16:22;14.20;;;4.38;;
47804;SDS011;33568;45.286;9.900;2022-08-19T00:18:50;7.15;;;4.05;;
47804;SDS011;33568;45.286;9.900;2022-08-19T00:21:16;13.45;;;5.70;;
47804;SDS011;33568;45.286;9.900;2022-08-19T00:23:43;7.00;;;3.92;;
47804;SDS011;33568;45.286;9.900;2022-08-19T00:26:10;8.85;;;4.78;;
47804;SDS011;33568;45.286;9.900;2022-08-19T00:28:37;8.73;;;4.30;;
47804;SDS011;33568;45.286;9.900;2022-08-19T00:31:05;10.93;;;4.50;;
47804;SDS011;33568;45.286;9.900;2022-08-19T00:33:33;12.65;;;4.60;;
47804;SDS011;33568;45.286;9.900;2022-08-19T00:36:00;6.68;;;3.70;;
47804;SDS011;33568;45.286;9.900;2022-08-19T00:38:30;9.38;;;4.05;;
47804;SDS011;33568;45.286;9.900;2022-08-19T00:40:57;10.32;;;4.70;;
47804;SDS011;33568;45.286;9.900;2022-08-19T00:43:25;9.25;;;3.42;;
47804;SDS011;33568;45.286;9.900;2022-08-19T00:45:53;8.23;;;4.15;;
47804;SDS011;33568;45.286;9.900;2022-08-19T00:48:20;10.68;;;3.88;;
47804;SDS011;33568;45.286;9.900;2022-08-19T00:50:48;7.35;;;3.35;;
47804;SDS011;33568;45.286;9.900;2022-08-19T00:53:17;7.28;;;3.85;;
47804;SDS011;33568;45.286;9.900;2022-08-19T00:55:48;8.73;;;4.07;;
47804;SDS011;33568;45.286;9.900;2022-08-19T00:58:19;8.98;;;4.10;;
47804;SDS011;33568;45.286;9.900;2022-08-19T01:00:47;8.40;;;3.95;;
47804;SDS011;33568;45.286;9.900;2022-08-19T01:03:15;8.43;;;3.72;;
47804;SDS011;33568;45.286;9.900;2022-08-19T01:05:44;10.07;;;3.38;;
47804;SDS011;33568;45.286;9.900;2022-08-19T01:08:13;6.95;;;3.83;;
47804;SDS011;33568;45.286;9.900;2022-08-19T01:10:42;9.25;;;4.35;;
47804;SDS011;33568;45.286;9.900;2022-08-19T01:13:14;9.10;;;4.18;;
47804;SDS011;33568;45.286;9.900;2022-08-19T01:15:43;8.75;;;3.83;;
47804;SDS011;33568;45.286;9.900;2022-08-19T01:18:13;10.85;;;4.15;;
47804;SDS011;33568;45.286;9.900;2022-08-19T01:20:42;8.68;;;3.58;;
47804;SDS011;33568;45.286;9.900;2022-08-19T01:23:09;9.55;;;3.47;;
47804;SDS011;33568;45.286;9.900;2022-08-19T01:28:23;9.90;;;3.65;;
47804;SDS011;33568;45.286;9.900;2022-08-19T01:30:53;7.63;;;3.33;;
47804;SDS011;33568;45.286;9.900;2022-08-19T01:33:20;5.93;;;3.30;;
47804;SDS011;33568;45.286;9.900;2022-08-19T01:35:48;8.18;;;3.38;;
47804;SDS011;33568;45.286;9.900;2022-08-19T01:38:23;8.55;;;3.88;;
47804;SDS011;33568;45.286;9.900;2022-08-19T01:40:52;8.40;;;3.33;;
47804;SDS011;33568;45.286;9.900;2022-08-19T01:43:19;7.00;;;3.35;;
47804;SDS011;33568;45.286;9.900;2022-08-19T01:45:48;4.88;;;3.13;;
47804;SDS011;33568;45.286;9.900;2022-08-19T01:48:14;5.40;;;3.30;;
47804;SDS011;33568;45.286;9.900;2022-08-19T01:50:41;7.65;;;3.13;;
47804;SDS011;33568;45.286;9.900;2022-08-19T01:53:10;9.02;;;4.10;;
47804;SDS011;33568;45.286;9.900;2022-08-19T01:55:38;7.25;;;4.15;;
47804;SDS011;33568;45.286;9.900;2022-08-19T01:58:17;6.25;;;3.38;;
47804;SDS011;33568;45.286;9.900;2022-08-19T02:00:47;10.98;;;3.80;;
47804;SDS011;33568;45.286;9.900;2022-08-19T02:03:14;9.80;;;3.60;;
47804;SDS011;33568;45.286;9.900;2022-08-19T02:05:42;6.63;;;3.90;;
47804;SDS011;33568;45.286;9.900;2022-08-19T02:08:10;9.10;;;4.45;;
47804;SDS011;33568;45.286;9.900;2022-08-19T02:10:38;7.50;;;4.20;;
47804;SDS011;33568;45.286;9.900;2022-08-19T02:13:06;10.27;;;5.03;;
47804;SDS011;33568;45.286;9.900;2022-08-19T02:15:33;8.05;;;4.35;;
47804;SDS011;33568;45.286;9.900;2022-08-19T02:18:00;7.88;;;3.47;;
47804;SDS011;33568;45.286;9.900;2022-08-19T02:20:27;7.80;;;5.05;;
47804;SDS011;33568;45.286;9.900;2022-08-19T02:22:53;9.70;;;4.18;;
47804;SDS011;33568;45.286;9.900;2022-08-19T02:25:21;7.78;;;3.90;;
47804;SDS011;33568;45.286;9.900;2022-08-19T02:27:47;7.43;;;3.63;;
47804;SDS011;33568;45.286;9.900;2022-08-19T02:30:15;5.68;;;3.40;;
47804;SDS011;33568;45.286;9.900;2022-08-19T02:32:42;6.95;;;3.05;;
47804;SDS011;33568;45.286;9.900;2022-08-19T02:35:11;8.35;;;3.78;;
47804;SDS011;33568;45.286;9.900;2022-08-19T02:37:40;3.85;;;3.30;;
47804;SDS011;33568;45.286;9.900;2022-08-19T02:40:26;7.07;;;3.43;;
47804;SDS011;33568;45.286;9.900;2022-08-19T02:42:53;6.68;;;2.60;;
47804;SDS011;33568;45.286;9.900;2022-08-19T02:45:20;10.07;;;3.30;;
47804;SDS011;33568;45.286;9.900;2022-08-19T02:47:47;9.07;;;4.30;;
47804;SDS011;33568;45.286;9.900;2022-08-19T02:50:14;8.38;;;3.17;;
47804;SDS011;33568;45.286;9.900;2022-08-19T02:52:41;4.90;;;3.08;;
47804;SDS011;33568;45.286;9.900;2022-08-19T02:55:07;7.53;;;3.67;;
47804;SDS011;33568;45.286;9.900;2022-08-19T02:57:37;6.13;;;3.03;;
47804;SDS011;33568;45.286;9.900;2022-08-19T03:00:05;5.13;;;2.67;;
47804;SDS011;33568;45.286;9.900;2022-08-19T03:02:34;8.00;;;2.80;;
47804;SDS011;33568;45.286;9.900;2022-08-19T03:05:01;7.85;;;2.97;;
47804;SDS011;33568;45.286;9.900;2022-08-19T03:07:28;5.80;;;2.67;;
47804;SDS011;33568;45.286;9.900;2022-08-19T03:09:58;7.25;;;3.22;;
47804;SDS011;33568;45.286;9.900;2022-08-19T03:12:25;7.78;;;3.35;;
47804;SDS011;33568;45.286;9.900;2022-08-19T03:14:51;6.95;;;2.85;;
47804;SDS011;33568;45.286;9.900;2022-08-19T03:17:18;7.25;;;3.30;;
47804;SDS011;33568;45.286;9.900;2022-08-19T03:19:45;10.13;;;3.38;;
47804;SDS011;33568;45.286;9.900;2022-08-19T03:22:11;5.90;;;3.05;;
47804;SDS011;33568;45.286;9.900;2022-08-19T03:24:38;4.65;;;3.20;;
47804;SDS011;33568;45.286;9.900;2022-08-19T03:27:04;6.53;;;3.92;;
47804;SDS011;33568;45.286;9.900;2022-08-19T03:29:31;8.20;;;4.35;;
47804;SDS011;33568;45.286;9.900;2022-08-19T03:31:59;7.55;;;3.60;;
47804;SDS011;33568;45.286;9.900;2022-08-19T03:34:29;6.25;;;3.15;;
47804;SDS011;33568;45.286;9.900;2022-08-19T03:36:59;9.50;;;3.10;;
47804;SDS011;33568;45.286;9.900;2022-08-19T03:39:31;7.57;;;3.72;;
47804;SDS011;33568;45.286;9.900;2022-08-19T03:41:57;12.93;;;4.00;;
47804;SDS011;33568;45.286;9.900;2022-08-19T03:44:25;9.98;;;4.05;;
47804;SDS011;33568;45.286;9.900;2022-08-19T03:46:54;9.73;;;4.47;;
47804;SDS011;33568;45.286;9.900;2022-08-19T03:49:24;9.85;;;3.58;;
47804;SDS011;33568;45.286;9.900;2022-08-19T03:51:54;7.70;;;3.40;;
47804;SDS011;33568;45.286;9.900;2022-08-19T03:54:22;8.65;;;3.28;;
47804;SDS011;33568;45.286;9.900;2022-08-19T03:56:51;5.63;;;3.10;;
47804;SDS011;33568;45.286;9.900;2022-08-19T03:59:23;15.05;;;5.03;;
47804;SDS011;33568;45.286;9.900;2022-08-19T04:01:55;6.88;;;4.10;;
47804;SDS011;33568;45.286;9.900;2022-08-19T04:04:22;5.40;;;3.33;;
47804;SDS011;33568;45.286;9.900;2022-08-19T04:06:50;6.60;;;3.40;;
47804;SDS011;33568;45.286;9.900;2022-08-19T04:09:17;5.80;;;3.13;;
47804;SDS011;33568;45.286;9.900;2022-08-19T04:11:45;8.07;;;3.30;;
47804;SDS011;33568;45.286;9.900;2022-08-19T04:14:16;7.88;;;3.75;;
47804;SDS011;33568;45.286;9.900;2022-08-19T04:16:45;8.43;;;4.22;;
47804;SDS011;33568;45.286;9.900;2022-08-19T04:19:13;10.15;;;3.72;;
47804;SDS011;33568;45.286;9.900;2022-08-19T04:21:40;9.35;;;4.07;;
47804;SDS011;33568;45.286;9.900;2022-08-19T04:24:09;6.97;;;3.28;;
47804;SDS011;33568;45.286;9.900;2022-08-19T04:26:36;11.82;;;4.70;;
47804;SDS011;33568;45.286;9.900;2022-08-19T04:29:04;15.90;;;5.90;;
47804;SDS011;33568;45.286;9.900;2022-08-19T04:31:33;10.88;;;5.65;;
47804;SDS011;33568;45.286;9.900;2022-08-19T04:34:03;13.55;;;5.78;;
47804;SDS011;33568;45.286;9.900;2022-08-19T04:36:34;9.13;;;5.65;;
47804;SDS011;33568;45.286;9.900;2022-08-19T04:39:06;16.08;;;7.07;;
47804;SDS011;33568;45.286;9.900;2022-08-19T04:41:33;13.50;;;5.57;;
47804;SDS011;33568;45.286;9.900;2022-08-19T04:44:18;13.05;;;5.45;;
47804;SDS011;33568;45.286;9.900;2022-08-19T04:46:45;10.65;;;4.93;;
47804;SDS011;33568;45.286;9.900;2022-08-19T04:49:15;10.68;;;6.40;;
47804;SDS011;33568;45.286;9.900;2022-08-19T04:51:44;7.55;;;4.65;;
47804;SDS011;33568;45.286;9.900;2022-08-19T04:54:13;9.25;;;4.72;;
47804;SDS011;33568;45.286;9.900;2022-08-19T04:56:41;7.20;;;3.88;;
47804;SDS011;33568;45.286;9.900;2022-08-19T04:59:07;5.97;;;2.83;;
47804;SDS011;33568;45.286;9.900;2022-08-19T05:01:34;7.88;;;2.88;;
47804;SDS011;33568;45.286;9.900;2022-08-19T05:04:03;3.97;;;2.60;;
47804;SDS011;33568;45.286;9.900;2022-08-19T05:06:32;5.38;;;2.47;;
47804;SDS011;33568;45.286;9.900;2022-08-19T05:09:03;3.47;;;1.67;;
47804;SDS011;33568;45.286;9.900;2022-08-19T05:11:33;1.48;;;1.08;;
47804;SDS011;33568;45.286;9.900;2022-08-19T05:14:05;3.20;;;1.42;;
47804;SDS011;33568;45.286;9.900;2022-08-19T05:16:32;2.85;;;1.00;;
47804;SDS011;33568;45.286;9.900;2022-08-19T05:18:59;1.75;;;1.10;;
47804;SDS011;33568;45.286;9.900;2022-08-19T05:21:44;1.35;;;0.90;;
47804;SDS011;33568;45.286;9.900;2022-08-19T05:24:30;4.63;;;1.30;;
47804;SDS011;33568;45.286;9.900;2022-08-19T05:26:59;1.85;;;1.00;;
47804;SDS011;33568;45.286;9.900;2022-08-19T05:29:28;4.18;;;1.23;;
47804;SDS011;33568;45.286;9.900;2022-08-19T05:31:57;2.53;;;1.08;;
47804;SDS011;33568;45.286;9.900;2022-08-19T05:34:25;3.65;;;1.00;;
47804;SDS011;33568;45.286;9.900;2022-08-19T05:36:57;1.77;;;1.10;;
47804;SDS011;33568;45.286;9.900;2022-08-19T05:39:26;2.53;;;0.85;;
47804;SDS011;33568;45.286;9.900;2022-08-19T05:41:56;1.55;;;0.90;;
47804;SDS011;33568;45.286;9.900;2022-08-19T05:44:34;2.00;;;1.13;;
47804;SDS011;33568;45.286;9.900;2022-08-19T05:47:03;2.33;;;1.15;;
47804;SDS011;33568;45.286;9.900;2022-08-19T05:49:32;6.05;;;1.20;;
47804;SDS011;33568;45.286;9.900;2022-08-19T05:52:03;1.95;;;1.20;;
47804;SDS011;33568;45.286;9.900;2022-08-19T05:54:36;1.90;;;1.00;;
47804;SDS011;33568;45.286;9.900;2022-08-19T05:57:06;2.20;;;1.27;;
47804;SDS011;33568;45.286;9.900;2022-08-19T05:59:33;2.70;;;1.27;;
47804;SDS011;33568;45.286;9.900;2022-08-19T06:02:01;2.92;;;1.05;;
47804;SDS011;33568;45.286;9.900;2022-08-19T06:04:29;2.05;;;0.88;;
47804;SDS011;33568;45.286;9.900;2022-08-19T06:06:55;2.20;;;1.10;;
47804;SDS011;33568;45.286;9.900;2022-08-19T06:09:22;4.75;;;1.50;;
47804;SDS011;33568;45.286;9.900;2022-08-19T06:11:49;5.57;;;1.10;;
47804;SDS011;33568;45.286;9.900;2022-08-19T06:14:22;2.67;;;1.10;;
47804;SDS011;33568;45.286;9.900;2022-08-19T06:16:51;1.52;;;1.00;;
47804;SDS011;33568;45.286;9.900;2022-08-19T06:19:18;2.55;;;1.02;;
47804;SDS011;33568;45.286;9.900;2022-08-19T06:21:48;2.78;;;1.20;;
47804;SDS011;33568;45.286;9.900;2022-08-19T06:24:17;2.20;;;1.00;;
47804;SDS011;33568;45.286;9.900;2022-08-19T06:26:49;4.80;;;0.98;;
47804;SDS011;33568;45.286;9.900;2022-08-19T06:29:19;1.85;;;1.33;;
47804;SDS011;33568;45.286;9.900;2022-08-19T06:31:49;1.80;;;0.90;;
47804;SDS011;33568;45.286;9.900;2022-08-19T06:34:17;1.33;;;0.90;;
47804;SDS011;33568;45.286;9.900;2022-08-19T06:36:46;1.35;;;0.90;;
47804;SDS011;33568;45.286;9.900;2022-08-19T06:39:15;3.83;;;0.90;;
47804;SDS011;33568;45.286;9.900;2022-08-19T06:41:47;4.63;;;0.88;;
47804;SDS011;33568;45.286;9.900;2022-08-19T06:44:18;2.80;;;0.82;;
47804;SDS011;33568;45.286;9.900;2022-08-19T06:46:45;1.27;;;0.70;;
47804;SDS011;33568;45.286;9.900;2022-08-19T06:49:14;4.43;;;1.02;;
47804;SDS011;33568;45.286;9.900;2022-08-19T06:51:43;2.97;;;1.10;;
47804;SDS011;33568;45.286;9.900;2022-08-19T06:54:12;8.35;;;1.00;;
47804;SDS011;33568;45.286;9.900;2022-08-19T06:56:38;6.47;;;1.67;;
47804;SDS011;33568;45.286;9.900;2022-08-19T06:59:05;1.70;;;1.23;;
47804;SDS011;33568;45.286;9.900;2022-08-19T07:01:42;2.50;;;0.98;;
47804;SDS011;33568;45.286;9.900;2022-08-19T07:04:11;0.70;;;0.70;;
47804;SDS011;33568;45.286;9.900;2022-08-19T07:06:39;1.15;;;0.77;;
47804;SDS011;33568;45.286;9.900;2022-08-19T07:09:06;0.90;;;0.80;;
47804;SDS011;33568;45.286;9.900;2022-08-19T07:11:34;3.60;;;1.02;;
47804;SDS011;33568;45.286;9.900;2022-08-19T07:14:03;10.40;;;1.10;;
47804;SDS011;33568;45.286;9.900;2022-08-19T07:16:29;1.45;;;0.63;;
47804;SDS011;33568;45.286;9.900;2022-08-19T07:18:56;2.20;;;0.68;;
47804;SDS011;33568;45.286;9.900;2022-08-19T07:21:23;2.05;;;0.80;;
47804;SDS011;33568;45.286;9.900;2022-08-19T07:23:54;2.35;;;0.82;;
47804;SDS011;33568;45.286;9.900;2022-08-19T07:28:53;1.52;;;0.80;;
47804;SDS011;33568;45.286;9.900;2022-08-19T07:31:21;3.08;;;1.00;;
47804;SDS011;33568;45.286;9.900;2022-08-19T07:33:49;1.65;;;0.70;;
47804;SDS011;33568;45.286;9.900;2022-08-19T07:36:19;1.52;;;0.70;;
47804;SDS011;33568;45.286;9.900;2022-08-19T07:38:48;2.50;;;0.80;;
47804;SDS011;33568;45.286;9.900;2022-08-19T07:41:22;1.73;;;0.70;;
47804;SDS011;33568;45.286;9.900;2022-08-19T07:43:51;0.90;;;0.60;;
47804;SDS011;33568;45.286;9.900;2022-08-19T07:46:20;1.17;;;0.68;;
47804;SDS011;33568;45.286;9.900;2022-08-19T07:48:47;1.42;;;0.73;;
47804;SDS011;33568;45.286;9.900;2022-08-19T07:51:17;0.85;;;0.60;;
47804;SDS011;33568;45.286;9.900;2022-08-19T07:53:46;0.75;;;0.70;;
47804;SDS011;33568;45.286;9.900;2022-08-19T07:56:17;0.40;;;0.40;;
47804;SDS011;33568;45.286;9.900;2022-08-19T07:58:44;1.77;;;0.75;;
47804;SDS011;33568;45.286;9.900;2022-08-19T08:01:13;0.60;;;0.60;;
47804;SDS011;33568;45.286;9.900;2022-08-19T08:03:42;2.75;;;0.63;;
47804;SDS011;33568;45.286;9.900;2022-08-19T08:06:27;0.40;;;0.40;;
47804;SDS011;33568;45.286;9.900;2022-08-19T08:09:13;0.65;;;0.60;;
47804;SDS011;33568;45.286;9.900;2022-08-19T08:14:42;1.65;;;0.80;;
47804;SDS011;33568;45.286;9.900;2022-08-19T08:17:15;0.60;;;0.60;;
47804;SDS011;33568;45.286;9.900;2022-08-19T08:19:43;1.85;;;0.75;;
47804;SDS011;33568;45.286;9.900;2022-08-19T08:22:10;0.60;;;0.60;;
47804;SDS011;33568;45.286;9.900;2022-08-19T08:25:08;0.70;;;0.60;;
47804;SDS011;33568;45.286;9.900;2022-08-19T08:27:40;3.47;;;0.50;;
47804;SDS011;33568;45.286;9.900;2022-08-19T08:30:08;0.65;;;0.65;;
47804;SDS011;33568;45.286;9.900;2022-08-19T08:32:41;0.75;;;0.50;;
47804;SDS011;33568;45.286;9.900;2022-08-19T08:35:08;0.50;;;0.50;;
47804;SDS011;33568;45.286;9.900;2022-08-19T08:37:37;0.55;;;0.50;;
47804;SDS011;33568;45.286;9.900;2022-08-19T08:40:04;0.50;;;0.50;;
47804;SDS011;33568;45.286;9.900;2022-08-19T08:42:37;0.77;;;0.60;;
47804;SDS011;33568;45.286;9.900;2022-08-19T08:45:14;0.85;;;0.43;;
47804;SDS011;33568;45.286;9.900;2022-08-19T08:47:49;0.50;;;0.50;;
47804;SDS011;33568;45.286;9.900;2022-08-19T08:50:19;0.60;;;0.60;;
47804;SDS011;33568;45.286;9.900;2022-08-19T08:53:05;0.60;;;0.60;;
47804;SDS011;33568;45.286;9.900;2022-08-19T08:55:33;0.40;;;0.40;;
47804;SDS011;33568;45.286;9.900;2022-08-19T08:58:01;1.35;;;0.68;;
47804;SDS011;33568;45.286;9.900;2022-08-19T09:00:52;0.35;;;0.30;;
47804;SDS011;33568;45.286;9.900;2022-08-19T09:03:19;4.30;;;0.73;;
47804;SDS011;33568;45.286;9.900;2022-08-19T09:06:07;0.45;;;0.45;;
47804;SDS011;33568;45.286;9.900;2022-08-19T09:08:42;0.40;;;0.35;;
47804;SDS011;33568;45.286;9.900;2022-08-19T09:16:58;2.35;;;0.45;;
47804;SDS011;33568;45.286;9.900;2022-08-19T09:19:29;1.45;;;0.63;;
47804;SDS011;33568;45.286;9.900;2022-08-19T09:21:56;0.50;;;0.50;;
47804;SDS011;33568;45.286;9.900;2022-08-19T09:24:22;0.70;;;0.60;;
47804;SDS011;33568;45.286;9.900;2022-08-19T09:26:49;0.60;;;0.60;;
47804;SDS011;33568;45.286;9.900;2022-08-19T09:29:15;0.77;;;0.52;;
47804;SDS011;33568;45.286;9.900;2022-08-19T09:31:41;1.10;;;0.70;;
47804;SDS011;33568;45.286;9.900;2022-08-19T09:34:08;2.10;;;0.65;;
47804;SDS011;33568;45.286;9.900;2022-08-19T09:36:34;0.80;;;0.60;;
47804;SDS011;33568;45.286;9.900;2022-08-19T09:39:04;1.20;;;0.70;;
47804;SDS011;33568;45.286;9.900;2022-08-19T09:41:33;0.60;;;0.60;;
47804;SDS011;33568;45.286;9.900;2022-08-19T09:43:59;0.88;;;0.50;;
47804;SDS011;33568;45.286;9.900;2022-08-19T09:46:27;1.05;;;0.65;;
47804;SDS011;33568;45.286;9.900;2022-08-19T09:48:57;0.60;;;0.60;;
47804;SDS011;33568;45.286;9.900;2022-08-19T09:51:26;1.10;;;0.70;;
47804;SDS011;33568;45.286;9.900;2022-08-19T09:53:54;0.70;;;0.60;;
47804;SDS011;33568;45.286;9.900;2022-08-19T09:56:24;3.28;;;0.68;;
47804;SDS011;33568;45.286;9.900;2022-08-19T09:58:50;0.77;;;0.60;;
47804;SDS011;33568;45.286;9.900;2022-08-19T10:01:19;0.80;;;0.60;;
47804;SDS011;33568;45.286;9.900;2022-08-19T10:03:51;2.45;;;0.60;;
47804;SDS011;33568;45.286;9.900;2022-08-19T10:06:25;1.08;;;0.60;;
47804;SDS011;33568;45.286;9.900;2022-08-19T10:08:56;0.93;;;0.90;;
47804;SDS011;33568;45.286;9.900;2022-08-19T10:11:23;1.40;;;0.90;;
47804;SDS011;33568;45.286;9.900;2022-08-19T10:13:49;0.80;;;0.70;;
47804;SDS011;33568;45.286;9.900;2022-08-19T10:16:19;0.85;;;0.57;;
47804;SDS011;33568;45.286;9.900;2022-08-19T10:18:48;0.93;;;0.80;;
47804;SDS011;33568;45.286;9.900;2022-08-19T10:21:25;0.77;;;0.70;;
47804;SDS011;33568;45.286;9.900;2022-08-19T10:23:55;0.77;;;0.70;;
47804;SDS011;33568;45.286;9.900;2022-08-19T10:26:24;1.10;;;1.00;;
47804;SDS011;33568;45.286;9.900;2022-08-19T10:28:57;0.77;;;0.70;;
47804;SDS011;33568;45.286;9.900;2022-08-19T10:31:25;1.48;;;1.38;;
47804;SDS011;33568;45.286;9.900;2022-08-19T10:33:54;1.52;;;1.42;;
47804;SDS011;33568;45.286;9.900;2022-08-19T10:36:25;0.80;;;0.80;;
47804;SDS011;33568;45.286;9.900;2022-08-19T10:39:06;0.85;;;0.70;;
47804;SDS011;33568;45.286;9.900;2022-08-19T10:41:35;2.88;;;0.80;;
47804;SDS011;33568;45.286;9.900;2022-08-19T10:44:05;1.55;;;0.90;;
47804;SDS011;33568;45.286;9.900;2022-08-19T10:46:37;1.98;;;1.15;;
47804;SDS011;33568;45.286;9.900;2022-08-19T10:49:08;1.10;;;0.85;;
47804;SDS011;33568;45.286;9.900;2022-08-19T10:51:35;2.50;;;1.45;;
47804;SDS011;33568;45.286;9.900;2022-08-19T10:54:21;3.17;;;0.90;;
47804;SDS011;33568;45.286;9.900;2022-08-19T10:56:47;2.10;;;1.30;;
47804;SDS011;33568;45.286;9.900;2022-08-19T10:59:23;2.55;;;1.30;;
47804;SDS011;33568;45.286;9.900;2022-08-19T11:01:53;1.00;;;0.90;;
47804;SDS011;33568;45.286;9.900;2022-08-19T11:04:26;1.02;;;0.93;;
47804;SDS011;33568;45.286;9.900;2022-08-19T11:06:52;1.50;;;1.08;;
47804;SDS011;33568;45.286;9.900;2022-08-19T11:09:20;2.17;;;1.10;;
47804;SDS011;33568;45.286;9.900;2022-08-19T11:11:51;2.28;;;0.95;;
47804;SDS011;33568;45.286;9.900;2022-08-19T11:14:18;1.85;;;1.38;;
47804;SDS011;33568;45.286;9.900;2022-08-19T11:16:48;1.42;;;1.17;;
47804;SDS011;33568;45.286;9.900;2022-08-19T11:19:20;1.40;;;1.10;;
47804;SDS011;33568;45.286;9.900;2022-08-19T11:21:48;1.55;;;1.00;;
47804;SDS011;33568;45.286;9.900;2022-08-19T11:24:17;1.17;;;1.00;;
47804;SDS011;33568;45.286;9.900;2022-08-19T11:26:46;1.60;;;1.15;;
47804;SDS011;33568;45.286;9.900;2022-08-19T11:29:18;2.00;;;1.10;;
47804;SDS011;33568;45.286;9.900;2022-08-19T11:31:47;1.67;;;1.00;;
47804;SDS011;33568;45.286;9.900;2022-08-19T11:34:16;3.45;;;1.10;;
47804;SDS011;33568;45.286;9.900;2022-08-19T11:36:46;1.88;;;1.00;;
47804;SDS011;33568;45.286;9.900;2022-08-19T11:39:15;1.95;;;1.02;;
47804;SDS011;33568;45.286;9.900;2022-08-19T11:41:44;2.58;;;1.30;;
47804;SDS011;33568;45.286;9.900;2022-08-19T11:44:10;2.42;;;1.67;;
47804;SDS011;33568;45.286;9.900;2022-08-19T11:46:43;2.80;;;1.95;;
47804;SDS011;33568;45.286;9.900;2022-08-19T11:49:12;2.28;;;1.98;;
47804;SDS011;33568;45.286;9.900;2022-08-19T11:51:41;5.45;;;2.22;;
47804;SDS011;33568;45.286;9.900;2022-08-19T11:54:09;6.05;;;1.20;;
47804;SDS011;33568;45.286;9.900;2022-08-19T11:56:36;4.70;;;2.00;;
47804;SDS011;33568;45.286;9.900;2022-08-19T11:59:03;2.05;;;1.27;;
47804;SDS011;33568;45.286;9.900;2022-08-19T12:01:30;2.35;;;2.10;;
47804;SDS011;33568;45.286;9.900;2022-08-19T12:03:58;3.08;;;1.20;;
47804;SDS011;33568;45.286;9.900;2022-08-19T12:06:26;1.88;;;1.30;;
47804;SDS011;33568;45.286;9.900;2022-08-19T12:08:56;3.25;;;1.50;;
47804;SDS011;33568;45.286;9.900;2022-08-19T12:11:23;1.83;;;1.38;;
47804;SDS011;33568;45.286;9.900;2022-08-19T12:13:50;1.80;;;1.23;;
47804;SDS011;33568;45.286;9.900;2022-08-19T12:16:17;2.33;;;1.50;;
47804;SDS011;33568;45.286;9.900;2022-08-19T12:18:46;3.30;;;1.27;;
47804;SDS011;33568;45.286;9.900;2022-08-19T12:21:13;1.27;;;1.17;;
47804;SDS011;33568;45.286;9.900;2022-08-19T12:23:41;4.50;;;1.52;;
47804;SDS011;33568;45.286;9.900;2022-08-19T12:26:08;1.33;;;1.08;;
47804;SDS011;33568;45.286;9.900;2022-08-19T12:28:36;1.77;;;1.20;;
47804;SDS011;33568;45.286;9.900;2022-08-19T12:31:04;4.22;;;1.90;;
47804;SDS011;33568;45.286;9.900;2022-08-19T12:33:31;2.00;;;1.30;;
47804;SDS011;33568;45.286;9.900;2022-08-19T12:36:05;1.88;;;1.20;;
47804;SDS011;33568;45.286;9.900;2022-08-19T12:38:33;2.78;;;1.63;;
47804;SDS011;33568;45.286;9.900;2022-08-19T12:41:03;2.00;;;1.40;;
47804;SDS011;33568;45.286;9.900;2022-08-19T12:43:33;1.95;;;1.75;;
47804;SDS011;33568;45.286;9.900;2022-08-19T12:46:01;2.20;;;1.40;;
47804;SDS011;33568;45.286;9.900;2022-08-19T12:48:31;4.47;;;1.70;;
47804;SDS011;33568;45.286;9.900;2022-08-19T12:50:58;4.43;;;1.92;;
47804;SDS011;33568;45.286;9.900;2022-08-19T12:53:24;5.47;;;1.50;;
47804;SDS011;33568;45.286;9.900;2022-08-19T12:55:55;5.50;;;1.55;;
47804;SDS011;33568;45.286;9.900;2022-08-19T12:58:22;2.78;;;1.58;;
47804;SDS011;33568;45.286;9.900;2022-08-19T13:00:49;2.03;;;1.38;;
47804;SDS011;33568;45.286;9.900;2022-08-19T13:03:15;3.75;;;1.35;;
47804;SDS011;33568;45.286;9.900;2022-08-19T13:05:43;3.42;;;1.17;;
47804;SDS011;33568;45.286;9.900;2022-08-19T13:08:09;1.25;;;1.13;;
47804;SDS011;33568;45.286;9.900;2022-08-19T13:10:37;1.70;;;1.20;;
47804;SDS011;33568;45.286;9.900;2022-08-19T13:13:05;1.42;;;1.20;;
47804;SDS011;33568;45.286;9.900;2022-08-19T13:15:37;2.03;;;1.33;;
47804;SDS011;33568;45.286;9.900;2022-08-19T13:18:07;1.73;;;1.15;;
47804;SDS011;33568;45.286;9.900;2022-08-19T13:20:36;3.28;;;1.95;;
47804;SDS011;33568;45.286;9.900;2022-08-19T13:23:04;2.95;;;1.73;;
47804;SDS011;33568;45.286;9.900;2022-08-19T13:25:31;3.78;;;2.47;;
47804;SDS011;33568;45.286;9.900;2022-08-19T13:27:58;6.05;;;1.55;;
47804;SDS011;33568;45.286;9.900;2022-08-19T13:30:27;2.17;;;1.35;;
47804;SDS011;33568;45.286;9.900;2022-08-19T13:33:13;5.17;;;2.60;;
47804;SDS011;33568;45.286;9.900;2022-08-19T13:35:47;1.60;;;1.45;;
47804;SDS011;33568;45.286;9.900;2022-08-19T13:38:23;2.55;;;1.70;;
47804;SDS011;33568;45.286;9.900;2022-08-19T13:40:50;2.72;;;1.60;;
47804;SDS011;33568;45.286;9.900;2022-08-19T13:43:18;2.00;;;1.45;;
47804;SDS011;33568;45.286;9.900;2022-08-19T13:45:47;1.60;;;1.20;;
47804;SDS011;33568;45.286;9.900;2022-08-19T13:48:14;2.28;;;1.27;;
47804;SDS011;33568;45.286;9.900;2022-08-19T13:50:43;1.88;;;1.25;;
47804;SDS011;33568;45.286;9.900;2022-08-19T13:53:11;4.93;;;1.90;;
47804;SDS011;33568;45.286;9.900;2022-08-19T13:55:38;2.20;;;1.35;;
47804;SDS011;33568;45.286;9.900;2022-08-19T13:58:05;3.08;;;1.20;;
47804;SDS011;33568;45.286;9.900;2022-08-19T14:00:36;2.88;;;1.00;;
47804;SDS011;33568;45.286;9.900;2022-08-19T14:03:08;2.88;;;1.15;;
47804;SDS011;33568;45.286;9.900;2022-08-19T14:05:35;1.83;;;1.08;;
47804;SDS011;33568;45.286;9.900;2022-08-19T14:08:03;1.70;;;0.90;;
47804;SDS011;33568;45.286;9.900;2022-08-19T14:10:30;2.58;;;1.17;;
47804;SDS011;33568;45.286;9.900;2022-08-19T14:12:58;1.55;;;1.00;;
47804;SDS011;33568;45.286;9.900;2022-08-19T14:15:26;4.72;;;1.25;;
47804;SDS011;33568;45.286;9.900;2022-08-19T14:17:54;1.63;;;0.95;;
47804;SDS011;33568;45.286;9.900;2022-08-19T14:20:20;3.63;;;1.10;;
47804;SDS011;33568;45.286;9.900;2022-08-19T14:22:47;1.42;;;1.00;;
47804;SDS011;33568;45.286;9.900;2022-08-19T14:25:19;2.58;;;1.30;;
47804;SDS011;33568;45.286;9.900;2022-08-19T14:27:50;2.38;;;1.20;;
47804;SDS011;33568;45.286;9.900;2022-08-19T14:30:20;2.28;;;1.05;;
47804;SDS011;33568;45.286;9.900;2022-08-19T14:32:55;1.42;;;0.93;;
47804;SDS011;33568;45.286;9.900;2022-08-19T14:35:27;3.28;;;1.20;;
47804;SDS011;33568;45.286;9.900;2022-08-19T14:37:55;1.50;;;0.95;;
47804;SDS011;33568;45.286;9.900;2022-08-19T14:40:25;1.70;;;1.20;;
47804;SDS011;33568;45.286;9.900;2022-08-19T14:42:53;2.25;;;1.40;;
47804;SDS011;33568;45.286;9.900;2022-08-19T14:45:25;3.17;;;1.35;;
47804;SDS011;33568;45.286;9.900;2022-08-19T14:47:53;1.73;;;1.08;;
47804;SDS011;33568;45.286;9.900;2022-08-19T14:50:20;2.05;;;1.25;;
47804;SDS011;33568;45.286;9.900;2022-08-19T14:52:48;2.25;;;1.00;;
47804;SDS011;33568;45.286;9.900;2022-08-19T14:55:15;2.75;;;1.35;;
47804;SDS011;33568;45.286;9.900;2022-08-19T14:57:42;3.40;;;1.00;;
47804;SDS011;33568;45.286;9.900;2022-08-19T15:00:10;1.92;;;1.23;;
47804;SDS011;33568;45.286;9.900;2022-08-19T15:02:39;1.92;;;1.35;;
47804;SDS011;33568;45.286;9.900;2022-08-19T15:05:06;1.38;;;1.00;;
47804;SDS011;33568;45.286;9.900;2022-08-19T15:07:35;4.20;;;1.20;;
47804;SDS011;33568;45.286;9.900;2022-08-19T15:10:02;1.42;;;1.00;;
47804;SDS011;33568;45.286;9.900;2022-08-19T15:12:31;1.30;;;1.00;;
47804;SDS011;33568;45.286;9.900;2022-08-19T15:14:57;3.25;;;1.33;;